Time;durP1;ratioP1;P1;durP2;ratioP2;P2;SDS_P1;SDS_P2;PMS_P1;PMS_P2;Temp;Humidity;BMP_temperature;BMP_pressure;BME280_temperature;BME280_humidity;BME280_pressure;Samples;Min_cycle;Max_cycle;Signal;HPM_P1;HPM_P2
2022/11/20 00:01:03;;;;;;;46.67;37.50;;;7.20;99.90;;;;;;5001367;28;20036;-81
2022/11/20 00:03:29;;;;;;;44.67;37.77;;;7.10;99.90;;;;;;5032191;28;20033;-81
2022/11/20 00:06:00;;;;;;;40.93;36.70;;;7.20;99.90;;;;;;5017301;28;20053;-81
2022/11/20 00:08:26;;;;;;;53.40;43.53;;;7.20;99.90;;;;;;5034620;28;20038;-81
2022/11/20 00:10:52;;;;;;;54.97;42.90;;;7.20;99.90;;;;;;4998128;28;20041;-81
2022/11/20 00:13:18;;;;;;;51.50;39.57;;;7.20;99.90;;;;;;5027711;28;20036;-81
2022/11/20 00:15:44;;;;;;;65.77;47.20;;;7.20;99.90;;;;;;5033268;28;20032;-81
2022/11/20 00:18:10;;;;;;;74.13;49.83;;;7.20;99.90;;;;;;5031382;28;20033;-81
2022/11/20 00:20:36;;;;;;;82.60;55.13;;;7.20;99.90;;;;;;5049176;28;20032;-81
2022/11/20 00:23:03;;;;;;;85.60;53.83;;;7.20;99.90;;;;;;5051447;28;20030;-81
2022/11/20 00:25:29;;;;;;;89.13;58.60;;;7.10;99.90;;;;;;5051157;28;20037;-81
2022/11/20 00:27:55;;;;;;;78.00;53.77;;;7.20;99.90;;;;;;5034751;28;20024;-81
2022/11/20 00:30:21;;;;;;;88.77;57.87;;;7.30;99.90;;;;;;5027849;28;20030;-81
2022/11/20 00:32:47;;;;;;;79.90;53.13;;;7.20;99.90;;;;;;5031464;28;20025;-81
2022/11/20 00:35:13;;;;;;;70.23;48.43;;;7.30;99.90;;;;;;5056019;28;20025;-81
2022/11/20 00:37:39;;;;;;;72.73;48.27;;;7.30;99.90;;;;;;5056234;28;20469;-81
2022/11/20 00:40:06;;;;;;;65.00;47.33;;;7.30;99.90;;;;;;5037834;28;20028;-81
2022/11/20 00:42:32;;;;;;;66.87;47.53;;;7.20;99.90;;;;;;5022573;28;20032;-81
2022/11/20 00:44:58;;;;;;;55.53;44.33;;;7.30;99.90;;;;;;5017560;28;20076;-81
2022/11/20 00:47:24;;;;;;;53.27;41.53;;;7.30;99.90;;;;;;5052297;28;20033;-81
2022/11/20 00:49:50;;;;;;;57.10;41.37;;;7.30;99.90;;;;;;5037729;28;20040;-81
2022/11/20 00:52:17;;;;;;;50.50;39.80;;;7.20;99.90;;;;;;5037409;28;20035;-81
2022/11/20 00:54:43;;;;;;;47.30;39.00;;;7.30;99.90;;;;;;5027816;28;20025;-81
2022/11/20 00:57:09;;;;;;;46.43;40.33;;;7.30;99.90;;;;;;5017065;28;20049;-81
2022/11/20 00:59:35;;;;;;;39.70;35.40;;;7.30;99.90;;;;;;5017999;28;20505;-81
2022/11/20 01:02:01;;;;;;;39.80;33.60;;;7.10;99.90;;;;;;5003687;28;20045;-81
2022/11/20 01:04:27;;;;;;;36.20;32.33;;;7.10;99.90;;;;;;5034229;28;20443;-81
2022/11/20 01:06:53;;;;;;;36.73;32.70;;;7.10;99.90;;;;;;5034119;28;20040;-81
2022/11/20 01:09:19;;;;;;;38.93;32.60;;;7.00;99.90;;;;;;5000284;28;20033;-81
2022/11/20 01:11:45;;;;;;;40.67;32.47;;;7.10;99.90;;;;;;5034409;28;20041;-81
2022/11/20 01:14:13;;;;;;;34.10;30.70;;;7.20;99.90;;;;;;5014932;28;20034;-81
2022/11/20 01:16:41;;;;;;;39.00;29.40;;;7.10;99.90;;;;;;5042924;28;20037;-81
2022/11/20 01:19:10;;;;;;;32.70;29.37;;;7.20;99.90;;;;;;5042807;28;20470;-82
2022/11/20 01:21:38;;;;;;;32.77;29.47;;;7.20;99.90;;;;;;5004003;28;20048;-81
2022/11/20 01:24:05;;;;;;;31.33;28.40;;;7.30;99.90;;;;;;5053549;28;20474;-81
2022/11/20 01:26:32;;;;;;;32.87;29.37;;;7.20;99.90;;;;;;5013006;28;20041;-81
2022/11/20 01:28:59;;;;;;;32.13;28.70;;;7.30;99.90;;;;;;4999871;28;20048;-82
2022/11/20 01:31:33;;;;;;;27.70;25.20;;;7.30;99.90;;;;;;5023020;28;20516;-81
2022/11/20 01:34:03;;;;;;;27.13;24.43;;;7.20;99.90;;;;;;5036982;28;20025;-81
2022/11/20 01:36:30;;;;;;;27.48;25.05;;;7.00;99.90;;;;;;5002349;28;20025;-81
2022/11/20 01:38:58;;;;;;;29.60;26.73;;;7.00;99.90;;;;;;5016936;28;20038;-81
2022/11/20 01:44:11;;;;;;;28.33;25.63;;;7.10;99.90;;;;;;5024358;28;20552;-81
2022/11/20 01:46:38;;;;;;;27.17;24.43;;;7.20;99.90;;;;;;5016795;28;20037;-81
2022/11/20 01:49:16;;;;;;;26.87;24.03;;;7.20;99.90;;;;;;5017384;28;20021;-81
2022/11/20 01:51:55;;;;;;;27.57;24.80;;;7.10;99.90;;;;;;5039131;28;20502;-82
2022/11/20 01:54:28;;;;;;;27.47;24.63;;;7.10;99.90;;;;;;5016109;28;20033;-81
2022/11/20 01:56:55;;;;;;;28.00;25.43;;;7.10;99.90;;;;;;5013429;28;20046;-81
2022/11/20 01:59:21;;;;;;;27.70;25.13;;;7.20;99.90;;;;;;5014733;28;20479;-81
2022/11/20 02:01:47;;;;;;;28.20;25.43;;;7.30;99.90;;;;;;4999680;28;20049;-81
2022/11/20 02:04:13;;;;;;;29.23;25.50;;;7.40;99.90;;;;;;5012239;28;20046;-81
2022/11/20 02:06:44;;;;;;;27.10;24.53;;;7.50;99.90;;;;;;5005973;28;20041;-81
2022/11/20 02:09:11;;;;;;;28.87;25.93;;;7.40;99.90;;;;;;5020312;28;20048;-81
2022/11/20 02:11:37;;;;;;;27.33;24.67;;;7.30;99.90;;;;;;5013490;28;20394;-81
2022/11/20 02:14:03;;;;;;;30.30;26.53;;;7.20;99.90;;;;;;5014147;28;20038;-82
2022/11/20 02:16:35;;;;;;;30.27;27.17;;;7.20;99.90;;;;;;5019628;28;20081;-81
2022/11/20 02:19:02;;;;;;;33.03;27.10;;;7.20;99.90;;;;;;5012701;28;20026;-81
2022/11/20 02:22:00;;;;;;;27.87;25.27;;;7.30;99.90;;;;;;5007443;28;20040;-81
2022/11/20 02:24:26;;;;;;;27.07;24.37;;;7.20;99.90;;;;;;5014137;28;20033;-81
2022/11/20 02:26:54;;;;;;;27.77;25.27;;;7.30;99.90;;;;;;5013070;28;20382;-81
2022/11/20 02:29:31;;;;;;;27.30;24.47;;;7.30;99.90;;;;;;5010770;28;20030;-81
2022/11/20 02:31:57;;;;;;;25.50;23.13;;;7.20;99.90;;;;;;5025242;28;20048;-81
2022/11/20 02:34:23;;;;;;;29.37;23.83;;;7.30;99.90;;;;;;4996721;28;20038;-81
2022/11/20 02:36:50;;;;;;;27.10;24.47;;;7.30;99.90;;;;;;5013932;28;20088;-81
2022/11/20 02:39:16;;;;;;;27.73;24.70;;;7.40;99.90;;;;;;5012822;28;20037;-81
2022/11/20 02:41:42;;;;;;;26.97;24.43;;;7.50;99.90;;;;;;5028785;28;20037;-81
2022/11/20 02:44:08;;;;;;;28.83;25.80;;;7.40;99.90;;;;;;5003392;28;20037;-81
2022/11/20 02:46:35;;;;;;;27.83;25.23;;;7.40;99.90;;;;;;5013260;28;20052;-81
2022/11/20 02:49:04;;;;;;;28.13;25.13;;;7.30;99.90;;;;;;5011792;28;20025;-81
2022/11/20 02:51:30;;;;;;;29.73;26.13;;;7.30;99.90;;;;;;5025299;28;20518;-81
2022/11/20 02:53:57;;;;;;;27.97;25.07;;;7.40;99.90;;;;;;5001320;28;20026;-81
2022/11/20 02:56:23;;;;;;;27.70;24.57;;;7.40;99.90;;;;;;5009261;28;20462;-81
2022/11/20 02:58:49;;;;;;;28.30;25.37;;;7.50;99.90;;;;;;5030715;28;20041;-81
2022/11/20 03:01:15;;;;;;;31.90;26.70;;;7.50;99.90;;;;;;5032253;28;20478;-81
2022/11/20 03:03:41;;;;;;;32.57;25.63;;;7.50;99.90;;;;;;5019811;28;20044;-81
2022/11/20 03:06:07;;;;;;;28.07;25.07;;;7.50;99.90;;;;;;5018067;28;20417;-82
2022/11/20 03:08:34;;;;;;;29.90;26.67;;;7.50;99.90;;;;;;5021505;28;20033;-82
2022/11/20 03:11:04;;;;;;;29.83;27.13;;;7.50;99.90;;;;;;5010358;28;20044;-81
2022/11/20 03:13:31;;;;;;;28.52;24.85;;;7.60;99.90;;;;;;5010646;28;20037;-82
2022/11/20 03:15:57;;;;;;;27.03;24.50;;;7.60;99.90;;;;;;5012226;28;20372;-82
2022/11/20 03:18:23;;;;;;;26.97;24.20;;;7.60;99.90;;;;;;4978064;28;20487;-82
2022/11/20 03:20:49;;;;;;;27.33;24.30;;;7.60;99.90;;;;;;5011694;28;20032;-82
2022/11/20 03:23:15;;;;;;;27.40;24.63;;;7.60;99.90;;;;;;5027357;28;20037;-82
2022/11/20 03:25:41;;;;;;;25.90;23.33;;;7.60;99.90;;;;;;5003451;28;20042;-82
2022/11/20 03:28:07;;;;;;;26.20;23.80;;;7.60;99.90;;;;;;5010871;28;20026;-81
2022/11/20 03:30:34;;;;;;;26.47;22.47;;;7.70;99.90;;;;;;5010095;28;20030;-82
2022/11/20 03:33:00;;;;;;;21.57;19.77;;;7.60;99.90;;;;;;4998587;28;20057;-82
2022/11/20 03:35:26;;;;;;;22.70;20.50;;;7.60;99.90;;;;;;5010847;28;20252;-82
2022/11/20 03:37:52;;;;;;;20.50;19.00;;;7.60;99.90;;;;;;5025513;28;20471;-82
2022/11/20 03:40:18;;;;;;;21.00;19.10;;;7.70;99.90;;;;;;5030961;28;20040;-81
2022/11/20 03:42:45;;;;;;;19.67;18.00;;;7.90;99.90;;;;;;5030803;28;20025;-81
2022/11/20 03:45:12;;;;;;;20.90;19.10;;;7.90;99.90;;;;;;5031804;28;20044;-81
2022/11/20 03:47:38;;;;;;;22.42;20.45;;;8.10;99.90;;;;;;5031390;28;20398;-81
2022/11/20 03:50:06;;;;;;;21.23;19.55;;;8.10;99.90;;;;;;5029928;28;20471;-82
2022/11/20 03:52:32;;;;;;;19.60;18.17;;;8.10;99.90;;;;;;5027947;28;20041;-81
2022/11/20 03:54:58;;;;;;;21.80;20.13;;;8.10;99.90;;;;;;5030850;28;20033;-81
2022/11/20 03:57:24;;;;;;;21.67;20.00;;;8.10;99.90;;;;;;5031153;28;20060;-81
2022/11/20 03:59:50;;;;;;;22.60;20.70;;;8.10;99.90;;;;;;5018800;28;20034;-81
2022/11/20 04:02:16;;;;;;;22.83;20.93;;;8.20;99.90;;;;;;4993848;28;20401;-81
2022/11/20 04:04:42;;;;;;;21.33;19.98;;;8.20;99.90;;;;;;5012309;28;20030;-81
2022/11/20 04:07:09;;;;;;;21.85;20.35;;;8.20;99.90;;;;;;4978808;28;20041;-83
2022/11/20 04:09:35;;;;;;;21.80;20.10;;;8.20;99.90;;;;;;5012388;28;20040;-82
2022/11/20 04:12:01;;;;;;;21.45;19.85;;;8.20;99.90;;;;;;4994861;28;20038;-83
2022/11/20 04:14:27;;;;;;;23.00;21.05;;;8.20;99.90;;;;;;5011845;28;20528;-83
2022/11/20 04:16:53;;;;;;;23.67;21.65;;;8.20;99.90;;;;;;5024168;28;20495;-83
2022/11/20 04:19:19;;;;;;;23.20;21.35;;;8.30;99.90;;;;;;5025114;28;20045;-82
2022/11/20 04:21:45;;;;;;;22.65;20.85;;;8.30;99.90;;;;;;4994106;28;20478;-82
2022/11/20 04:24:11;;;;;;;22.63;20.75;;;8.30;99.90;;;;;;5019040;28;20030;-82
2022/11/20 04:26:37;;;;;;;23.83;21.73;;;8.30;99.90;;;;;;5028083;28;20049;-82
2022/11/20 04:29:03;;;;;;;22.98;21.05;;;8.40;99.90;;;;;;5031867;28;20033;-83
2022/11/20 04:31:31;;;;;;;22.60;20.90;;;8.50;99.90;;;;;;5029465;28;20045;-83
2022/11/20 04:34:04;;;;;;;22.65;21.20;;;8.40;99.90;;;;;;5010026;28;20033;-83
2022/11/20 04:36:30;;;;;;;21.88;20.48;;;8.50;99.90;;;;;;5010671;28;20030;-83
2022/11/20 04:39:02;;;;;;;22.00;20.48;;;8.60;99.90;;;;;;5011006;28;20045;-82
2022/11/20 04:41:29;;;;;;;;;;;8.60;99.90;;;;;;4994484;28;20049;-83
2022/11/20 04:43:59;;;;;;;20.30;18.75;;;8.50;99.90;;;;;;5012093;28;19920;-82
2022/11/20 04:46:26;;;;;;;22.70;21.00;;;8.60;99.90;;;;;;5010217;28;20038;-83
2022/11/20 04:48:52;;;;;;;23.63;21.52;;;8.60;99.90;;;;;;5020880;28;20025;-82
2022/11/20 04:51:18;;;;;;;91.63;27.80;;;8.50;99.90;;;;;;5010118;28;20041;-82
2022/11/20 04:53:44;;;;;;;23.98;22.38;;;8.50;99.90;;;;;;5022937;28;20044;-83
2022/11/20 04:56:11;;;;;;;261.63;33.97;;;8.60;99.90;;;;;;5025300;28;21982;-83
2022/11/20 04:58:37;;;;;;;26.23;23.80;;;8.60;99.90;;;;;;5029950;28;20474;-83
2022/11/20 05:01:09;;;;;;;27.63;25.40;;;8.70;99.90;;;;;;5029796;28;20034;-83
2022/11/20 05:03:35;;;;;;;27.55;25.33;;;8.70;99.90;;;;;;4986765;28;20072;-83
2022/11/20 05:06:05;;;;;;;27.10;25.08;;;8.70;99.90;;;;;;5009831;28;20053;-83
2022/11/20 05:08:31;;;;;;;27.55;24.90;;;8.70;99.90;;;;;;5010345;28;20411;-82
2022/11/20 05:11:09;;;;;;;25.90;23.80;;;8.70;99.90;;;;;;4994426;28;20052;-83
2022/11/20 05:13:35;;;;;;;24.30;22.77;;;8.80;99.90;;;;;;4998169;28;20045;-83
2022/11/20 05:16:06;;;;;;;365.63;38.17;;;8.80;99.90;;;;;;5016418;28;20033;-83
2022/11/20 05:18:36;;;;;;;29.00;26.40;;;8.80;99.90;;;;;;5013284;28;20029;-82
2022/11/20 05:21:02;;;;;;;27.65;25.35;;;8.80;99.90;;;;;;5020343;28;20034;-83
2022/11/20 05:23:29;;;;;;;25.40;23.58;;;8.90;99.90;;;;;;4995544;28;20053;-83
2022/11/20 05:25:55;;;;;;;25.02;22.70;;;9.00;99.90;;;;;;5022857;28;20433;-83
2022/11/20 05:28:22;;;;;;;24.52;22.73;;;8.90;99.90;;;;;;5034034;28;20029;-83
2022/11/20 05:30:48;;;;;;;24.55;22.95;;;8.90;99.90;;;;;;5033557;28;20045;-83
2022/11/20 05:33:14;;;;;;;26.13;23.67;;;8.90;99.90;;;;;;5026169;28;20041;-83
2022/11/20 05:35:40;;;;;;;24.67;22.85;;;8.90;99.90;;;;;;5013649;28;20030;-83
2022/11/20 05:38:06;;;;;;;23.98;22.25;;;8.90;99.90;;;;;;4989669;28;20053;-83
2022/11/20 05:40:33;;;;;;;24.42;22.83;;;9.00;99.90;;;;;;5013784;28;20059;-83
2022/11/20 05:42:59;;;;;;;24.17;22.48;;;9.10;99.90;;;;;;5008307;28;20044;-82
2022/11/20 05:45:25;;;;;;;23.17;21.67;;;9.00;99.90;;;;;;5014148;28;20047;-83
2022/11/20 05:47:52;;;;;;;24.88;23.38;;;9.00;99.90;;;;;;4997225;28;20033;-84
2022/11/20 05:50:18;;;;;;;25.48;23.50;;;9.10;99.90;;;;;;5012751;28;20033;-83
2022/11/20 05:52:44;;;;;;;24.73;23.15;;;9.10;99.90;;;;;;4997497;28;20090;-83
2022/11/20 05:55:10;;;;;;;26.50;24.60;;;9.10;99.90;;;;;;5017396;28;20508;-83
2022/11/20 05:57:36;;;;;;;26.38;24.58;;;9.10;99.90;;;;;;5005605;28;20042;-86
2022/11/20 06:00:03;;;;;;;24.85;23.13;;;9.00;99.90;;;;;;5021343;28;20390;-83
2022/11/20 06:02:29;;;;;;;25.67;23.08;;;9.10;99.90;;;;;;5014351;28;20045;-83
2022/11/20 06:04:55;;;;;;;24.38;22.63;;;9.10;99.90;;;;;;5024529;28;20041;-83
2022/11/20 06:07:21;;;;;;;24.10;22.33;;;9.10;99.90;;;;;;5014480;28;20521;-82
2022/11/20 06:09:47;;;;;;;24.75;22.83;;;9.10;99.90;;;;;;5032960;28;20029;-83
2022/11/20 06:12:13;;;;;;;25.15;23.35;;;9.00;99.90;;;;;;5027996;28;20049;-83
2022/11/20 06:14:42;;;;;;;24.98;23.08;;;9.00;99.90;;;;;;5003493;28;20030;-83
2022/11/20 06:17:08;;;;;;;24.38;22.58;;;9.00;99.90;;;;;;5023519;28;20041;-84
2022/11/20 06:19:34;;;;;;;24.73;23.00;;;8.90;99.90;;;;;;5014689;28;20293;-83
2022/11/20 06:22:00;;;;;;;24.17;22.52;;;8.90;99.90;;;;;;5034050;28;20033;-85
2022/11/20 06:24:26;;;;;;;24.08;22.27;;;8.90;99.90;;;;;;5032694;28;20467;-83
2022/11/20 06:26:52;;;;;;;23.98;22.27;;;8.90;99.90;;;;;;5032871;28;20041;-84
2022/11/20 06:29:18;;;;;;;24.80;23.00;;;8.90;99.90;;;;;;5017669;28;20029;-84
2022/11/20 06:31:44;;;;;;;24.85;23.02;;;8.90;99.90;;;;;;5011465;28;20044;-86
2022/11/20 06:34:10;;;;;;;24.40;22.65;;;9.00;99.90;;;;;;4983279;28;20033;-85
2022/11/20 06:36:36;;;;;;;24.10;22.23;;;9.00;99.90;;;;;;5016603;28;20029;-85
2022/11/20 06:39:03;;;;;;;24.65;22.70;;;9.10;99.90;;;;;;5031255;28;20061;-85
2022/11/20 06:41:29;;;;;;;25.15;23.45;;;9.20;99.90;;;;;;4995193;28;20049;-84
2022/11/20 06:43:55;;;;;;;28.17;25.88;;;9.10;99.90;;;;;;4997218;28;20046;-85
2022/11/20 06:46:21;;;;;;;30.05;27.85;;;9.10;99.90;;;;;;5031914;28;20049;-86
2022/11/20 06:48:48;;;;;;;30.75;28.88;;;9.10;99.90;;;;;;5032255;28;20029;-85
2022/11/20 06:51:14;;;;;;;29.77;27.73;;;9.20;99.90;;;;;;4999889;28;20494;-84
2022/11/20 06:53:40;;;;;;;26.95;24.70;;;9.20;99.90;;;;;;5009381;28;20029;-84
2022/11/20 06:56:06;;;;;;;26.15;24.38;;;9.20;99.90;;;;;;5004201;28;20060;-84
2022/11/20 06:58:33;;;;;;;24.85;23.10;;;9.20;99.90;;;;;;4991846;28;20053;-83
2022/11/20 07:00:59;;;;;;;25.55;23.52;;;9.30;99.90;;;;;;4995784;28;20030;-84
2022/11/20 07:03:26;;;;;;;25.90;23.90;;;9.30;99.90;;;;;;5031151;28;20493;-83
2022/11/20 07:05:54;;;;;;;25.00;23.15;;;9.20;99.90;;;;;;5028489;28;20037;-84
2022/11/20 07:08:20;;;;;;;24.27;22.45;;;9.20;99.90;;;;;;5015365;28;20052;-85
2022/11/20 07:10:47;;;;;;;29.45;22.55;;;9.20;99.90;;;;;;5027571;28;20425;-84
2022/11/20 07:13:13;;;;;;;23.95;22.00;;;9.10;99.90;;;;;;5018948;28;20113;-85
2022/11/20 07:15:39;;;;;;;23.70;21.88;;;9.10;99.90;;;;;;5011326;28;20049;-84
2022/11/20 07:18:05;;;;;;;24.05;22.05;;;9.20;99.90;;;;;;4997378;28;20033;-84
2022/11/20 07:20:31;;;;;;;24.48;22.55;;;9.20;99.90;;;;;;5021235;28;20037;-83
2022/11/20 07:22:58;;;;;;;24.98;22.83;;;9.10;99.90;;;;;;5013100;28;20037;-83
2022/11/20 07:25:24;;;;;;;26.33;23.88;;;9.20;99.90;;;;;;5012519;28;20097;-85
2022/11/20 07:27:50;;;;;;;26.00;24.08;;;9.20;99.90;;;;;;5021834;28;20037;-84
2022/11/20 07:30:17;;;;;;;27.52;25.38;;;9.20;99.90;;;;;;5031276;28;20036;-84
2022/11/20 07:32:46;;;;;;;29.98;27.77;;;9.20;99.90;;;;;;5013581;28;20033;-83
2022/11/20 07:35:13;;;;;;;31.00;28.73;;;9.20;99.90;;;;;;5031369;28;20478;-83
2022/11/20 07:37:39;;;;;;;32.83;30.65;;;9.30;99.90;;;;;;5029907;28;20037;-85
2022/11/20 07:40:05;;;;;;;30.05;27.73;;;9.30;99.90;;;;;;5014578;28;20471;-84
2022/11/20 07:42:31;;;;;;;31.60;29.20;;;9.40;99.90;;;;;;5021529;28;20042;-82
2022/11/20 07:44:58;;;;;;;149.48;38.75;;;9.30;99.90;;;;;;4994610;28;20053;-86
2022/11/20 07:47:24;;;;;;;38.75;36.05;;;9.20;99.90;;;;;;4991568;28;20045;-87
2022/11/20 07:49:50;;;;;;;37.33;35.03;;;9.30;99.90;;;;;;5013284;28;20022;-84
2022/11/20 07:52:16;;;;;;;38.67;35.53;;;9.40;99.90;;;;;;4995017;28;20502;-84
2022/11/20 07:54:43;;;;;;;38.88;36.15;;;9.30;99.90;;;;;;5011665;28;20033;-84
2022/11/20 07:57:09;;;;;;;44.47;41.50;;;9.30;99.90;;;;;;5003505;28;20609;-84
2022/11/20 07:59:35;;;;;;;49.53;46.53;;;9.40;99.90;;;;;;4998054;28;20038;-83
2022/11/20 08:02:01;;;;;;;145.15;55.40;;;9.40;99.90;;;;;;5029033;28;20029;-86
2022/11/20 08:04:27;;;;;;;55.78;52.65;;;9.40;99.90;;;;;;5027262;28;20041;-84
2022/11/20 08:06:53;;;;;;;52.03;48.58;;;9.50;99.90;;;;;;5010995;28;20474;-85
2022/11/20 08:09:19;;;;;;;47.58;44.47;;;9.50;99.90;;;;;;5010634;28;20029;-84
2022/11/20 08:14:30;;;;;;;37.03;34.63;;;9.50;99.90;;;;;;5017895;28;20410;-85
2022/11/20 08:16:56;;;;;;;46.35;43.20;;;9.60;99.90;;;;;;5021004;28;20040;-82
2022/11/20 08:19:22;;;;;;;44.20;41.47;;;9.60;99.90;;;;;;5032023;28;20029;-83
2022/11/20 08:21:48;;;;;;;47.17;44.42;;;9.60;99.90;;;;;;5025104;28;20032;-83
2022/11/20 08:24:14;;;;;;;46.25;43.38;;;9.60;99.90;;;;;;5031667;28;20041;-83
2022/11/20 08:26:40;;;;;;;49.60;46.60;;;9.60;99.90;;;;;;5029494;28;20418;-82
2022/11/20 08:29:07;;;;;;;46.35;43.55;;;9.60;99.90;;;;;;5021964;28;20030;-84
2022/11/20 08:31:33;;;;;;;53.85;50.40;;;9.60;99.90;;;;;;5013704;28;20042;-83
2022/11/20 08:33:59;;;;;;;51.97;48.97;;;9.60;99.90;;;;;;5029618;28;20414;-83
2022/11/20 08:36:26;;;;;;;55.78;52.40;;;9.60;99.90;;;;;;5011056;28;20042;-82
2022/11/20 08:38:53;;;;;;;51.60;48.30;;;9.70;99.90;;;;;;4993555;28;20042;-83
2022/11/20 08:41:26;;;;;;;58.47;54.35;;;9.70;99.90;;;;;;5010947;28;20367;-83
2022/11/20 08:43:56;;;;;;;56.08;52.72;;;9.70;99.90;;;;;;5008344;28;20037;-83
2022/11/20 08:46:23;;;;;;;65.68;62.13;;;9.80;99.90;;;;;;5028530;28;20406;-83
2022/11/20 08:48:49;;;;;;;60.47;56.83;;;9.80;99.90;;;;;;5001574;28;20478;-86
2022/11/20 08:51:16;;;;;;;86.65;81.78;;;9.90;99.90;;;;;;5023870;28;20049;-82
2022/11/20 08:53:42;;;;;;;83.93;78.57;;;10.00;99.90;;;;;;5014540;28;20027;-82
2022/11/20 08:56:09;;;;;;;81.63;77.25;;;10.10;99.90;;;;;;5014740;28;20057;-82
2022/11/20 08:58:36;;;;;;;65.00;61.20;;;10.20;99.90;;;;;;5014269;28;20030;-83
2022/11/20 09:01:02;;;;;;;63.28;59.65;;;10.20;99.90;;;;;;5013797;28;20030;-83
2022/11/20 09:03:28;;;;;;;68.68;64.72;;;10.30;99.90;;;;;;5014523;28;20036;-85
2022/11/20 09:05:59;;;;;;;67.20;63.53;;;10.30;99.90;;;;;;5015483;28;20018;-84
2022/11/20 09:08:25;;;;;;;72.28;68.25;;;10.30;99.90;;;;;;5014270;28;20088;-83
2022/11/20 09:10:55;;;;;;;64.03;60.78;;;10.30;99.90;;;;;;5031054;28;20033;-83
2022/11/20 09:13:21;;;;;;;67.93;63.85;;;10.30;99.90;;;;;;5019688;28;20386;-83
2022/11/20 09:15:52;;;;;;;82.63;78.18;;;10.30;99.90;;;;;;5014169;28;20394;-82
2022/11/20 09:18:18;;;;;;;80.95;76.63;;;10.40;99.90;;;;;;5033791;28;20041;-83
2022/11/20 09:20:44;;;;;;;80.45;76.03;;;10.40;99.90;;;;;;5030624;28;20033;-83
2022/11/20 09:23:10;;;;;;;95.22;90.43;;;10.50;99.90;;;;;;5014561;28;20030;-82
2022/11/20 09:25:37;;;;;;;103.90;98.68;;;10.60;99.90;;;;;;5013113;28;20060;-83
2022/11/20 09:28:03;;;;;;;70.50;66.88;;;10.70;99.90;;;;;;4996983;28;20050;-83
2022/11/20 09:30:30;;;;;;;59.17;55.25;;;10.80;99.90;;;;;;5011625;28;20030;-82
2022/11/20 09:32:56;;;;;;;56.83;54.00;;;10.70;99.90;;;;;;5032404;28;20029;-82
2022/11/20 09:35:23;;;;;;;66.75;63.45;;;10.70;99.90;;;;;;5032452;28;20022;-83
2022/11/20 09:37:49;;;;;;;48.70;46.20;;;10.70;99.90;;;;;;5013123;28;20494;-83
2022/11/20 09:40:19;;;;;;;54.90;52.08;;;10.60;99.90;;;;;;5016491;28;20033;-83
2022/11/20 09:42:48;;;;;;;56.78;53.63;;;10.50;99.90;;;;;;5022390;28;20033;-83
2022/11/20 09:45:35;;;;;;;74.82;70.95;;;10.50;99.90;;;;;;5011861;28;20038;-84
2022/11/20 09:48:29;;;;;;;59.58;56.33;;;10.60;99.90;;;;;;5026833;28;20052;-83
2022/11/20 09:51:22;;;;;;;66.53;63.08;;;10.50;99.90;;;;;;5012740;28;20446;-84
2022/11/20 09:54:23;;;;;;;80.97;76.90;;;10.50;99.90;;;;;;5030060;28;20021;-87
2022/11/20 09:56:54;;;;;;;96.40;91.50;;;10.50;99.90;;;;;;5017323;28;20081;-86
2022/11/20 09:59:33;;;;;;;72.28;68.65;;;10.60;99.90;;;;;;4996029;28;20032;-86
2022/11/20 10:01:59;;;;;;;80.18;76.07;;;10.70;99.90;;;;;;5012987;28;20045;-86
2022/11/20 10:04:25;;;;;;;85.03;80.57;;;10.80;99.90;;;;;;4997264;28;20025;-85
2022/11/20 10:07:16;;;;;;;128.07;81.15;;;10.90;99.90;;;;;;4996530;28;20034;-86
2022/11/20 10:09:48;;;;;;;95.53;90.72;;;11.10;99.90;;;;;;5014274;28;20038;-86
2022/11/20 10:12:29;;;;;;;99.28;94.25;;;11.10;99.90;;;;;;4997802;28;20041;-86
2022/11/20 10:15:05;;;;;;;100.40;95.40;;;11.20;99.90;;;;;;5015669;28;20033;-86
2022/11/20 10:17:50;;;;;;;130.82;124.28;;;11.20;99.90;;;;;;5006671;28;20030;-86
2022/11/20 10:20:36;;;;;;;97.45;92.18;;;11.20;99.90;;;;;;5027057;28;20032;-88
2022/11/20 10:23:17;;;;;;;75.53;71.43;;;11.20;99.90;;;;;;5027126;28;20052;-85
2022/11/20 10:25:46;;;;;;;;;;;11.30;99.90;;;;;;5031820;28;20394;-89
2022/11/20 10:28:21;;;;;;;221.90;65.10;;;11.30;99.90;;;;;;5012680;28;19921;-85
2022/11/20 10:30:50;;;;;;;57.92;55.00;;;11.40;99.90;;;;;;5014944;28;20033;-83
2022/11/20 10:33:19;;;;;;;54.63;51.88;;;11.40;99.90;;;;;;5006902;28;20416;-83
2022/11/20 10:36:19;;;;;;;43.03;40.90;;;11.40;99.90;;;;;;4998327;28;20568;-83
2022/11/20 10:38:52;;;;;;;44.40;42.15;;;11.40;99.90;;;;;;5007619;28;20498;-84
2022/11/20 10:41:24;;;;;;;41.33;39.30;;;11.50;99.90;;;;;;4995921;28;20038;-83
2022/11/20 10:44:03;;;;;;;39.88;37.88;;;11.60;99.90;;;;;;5014925;28;20026;-83
2022/11/20 10:46:40;;;;;;;36.70;34.70;;;11.70;99.90;;;;;;4999814;28;20045;-83
2022/11/20 10:49:16;;;;;;;39.63;37.53;;;11.70;99.90;;;;;;5031273;28;20025;-83
2022/11/20 10:51:45;;;;;;;36.25;34.25;;;11.70;99.90;;;;;;4995384;28;20041;-83
2022/11/20 10:54:23;;;;;;;41.38;38.47;;;11.80;99.90;;;;;;5029718;28;20394;-83
2022/11/20 10:56:51;;;;;;;49.35;45.17;;;11.80;99.90;;;;;;5033238;28;20064;-83
2022/11/20 10:59:46;;;;;;;37.25;34.55;;;11.90;99.90;;;;;;5018368;28;20036;-85
2022/11/20 11:02:33;;;;;;;39.75;37.00;;;12.00;99.90;;;;;;5020971;28;20049;-84
2022/11/20 11:05:00;;;;;;;39.58;37.05;;;12.00;99.90;;;;;;5014006;28;20029;-88
2022/11/20 11:07:33;;;;;;;41.58;38.65;;;12.00;99.90;;;;;;5015776;28;20049;-88
2022/11/20 11:09:59;;;;;;;44.08;40.50;;;12.10;99.90;;;;;;5007601;28;20025;-88
2022/11/20 11:12:27;;;;;;;48.15;44.03;;;12.00;99.90;;;;;;5018920;28;20033;-87
2022/11/20 11:14:57;;;;;;;47.15;43.38;;;12.10;99.90;;;;;;5015356;28;21129;-87
2022/11/20 11:17:27;;;;;;;40.33;37.10;;;12.20;99.90;;;;;;5027463;28;20464;-85
2022/11/20 11:20:26;;;;;;;42.50;38.47;;;12.20;99.90;;;;;;5011965;28;20036;-87
2022/11/20 11:22:54;;;;;;;38.80;35.15;;;12.30;99.90;;;;;;5017627;28;20033;-84
2022/11/20 11:25:30;;;;;;;41.38;37.45;;;12.30;99.90;;;;;;5034850;28;20032;-83
2022/11/20 11:27:59;;;;;;;30.13;26.60;;;12.40;99.90;;;;;;5039834;28;20502;-85
2022/11/20 11:30:26;;;;;;;31.05;27.83;;;12.50;99.90;;;;;;5031956;28;20029;-85
2022/11/20 11:33:04;;;;;;;30.70;27.63;;;12.50;99.90;;;;;;4994494;28;20038;-85
2022/11/20 11:35:30;;;;;;;32.97;27.63;;;12.50;99.90;;;;;;5014808;28;20025;-85
2022/11/20 11:38:09;;;;;;;33.05;26.85;;;12.50;99.90;;;;;;5047192;28;20032;-84
2022/11/20 11:40:36;;;;;;;27.17;23.63;;;12.60;99.90;;;;;;5005323;28;20359;-88
2022/11/20 11:43:05;;;;;;;32.20;24.27;;;12.60;99.90;;;;;;5002545;28;20025;-86
2022/11/20 11:45:31;;;;;;;28.65;23.40;;;12.70;99.90;;;;;;4989741;28;20022;-88
2022/11/20 11:47:58;;;;;;;30.35;25.25;;;12.70;99.90;;;;;;5014619;28;20406;-87
2022/11/20 11:50:25;;;;;;;34.80;29.88;;;12.70;99.90;;;;;;4997989;28;20037;-87
2022/11/20 11:53:03;;;;;;;40.72;27.35;;;12.70;99.90;;;;;;5009030;28;20397;-86
2022/11/20 11:55:49;;;;;;;26.33;22.88;;;12.80;99.90;;;;;;5043173;28;20392;-91
2022/11/20 11:58:46;;;;;;;24.58;21.98;;;12.80;99.90;;;;;;5023024;28;20037;-88
2022/11/20 12:01:30;;;;;;;23.25;20.77;;;12.80;99.90;;;;;;5027397;28;20064;-86
2022/11/20 12:04:17;;;;;;;29.25;21.50;;;12.90;99.90;;;;;;5045186;28;20028;-85
2022/11/20 12:06:45;;;;;;;28.52;23.35;;;12.90;99.90;;;;;;5015845;28;20041;-88
2022/11/20 12:09:11;;;;;;;30.70;22.08;;;13.00;99.90;;;;;;5005395;28;20028;-87
2022/11/20 12:11:45;;;;;;;28.23;21.40;;;13.00;99.90;;;;;;5009865;28;20292;-87
2022/11/20 12:14:36;;;;;;;27.20;21.33;;;13.10;99.90;;;;;;5017792;28;20034;-85
2022/11/20 12:17:03;;;;;;;25.77;20.50;;;13.10;99.90;;;;;;4997678;28;20121;-87
2022/11/20 12:19:31;;;;;;;31.90;21.92;;;13.10;99.90;;;;;;4998477;28;20041;-88
2022/11/20 12:22:10;;;;;;;27.35;21.75;;;13.00;99.90;;;;;;5018665;28;20483;-86
2022/11/20 12:24:39;;;;;;;24.92;20.75;;;13.20;99.90;;;;;;4997809;28;20053;-85
2022/11/20 12:27:49;;;;;;;26.98;21.30;;;13.20;99.90;;;;;;5014341;28;20045;-85
2022/11/20 12:30:18;;;;;;;28.63;20.35;;;13.20;99.90;;;;;;4975068;28;20046;-85
2022/11/20 12:33:21;;;;;;;31.23;20.75;;;13.20;99.90;;;;;;4977864;28;20503;-86
2022/11/20 12:36:15;;;;;;;39.20;23.70;;;13.20;99.90;;;;;;5007191;28;20048;-84
2022/11/20 12:39:20;;;;;;;43.55;27.77;;;13.20;99.90;;;;;;4993324;28;20506;-87
2022/11/20 12:45:43;;;;;;;32.38;23.38;;;13.30;99.90;;;;;;4930714;28;20039;-86
2022/11/20 12:48:43;;;;;;;33.08;21.60;;;13.30;99.90;;;;;;4929468;29;20497;-85
2022/11/20 12:51:15;;;;;;;33.17;20.75;;;13.40;99.90;;;;;;4909606;29;21370;-84
2022/11/20 12:54:00;;;;;;;29.73;20.38;;;13.50;99.90;;;;;;4913954;29;20055;-85